sensor_id;sensor_type;location;lat;lon;timestamp;P1;durP1;ratioP1;P2;durP2;ratioP2
39848;SDS011;25518;47.878;15.914;2024-02-23T00:00:57;4.75;;;2.25;;
39848;SDS011;25518;47.878;15.914;2024-02-23T00:03:49;4.83;;;2.33;;
39848;SDS011;25518;47.878;15.914;2024-02-23T00:06:41;5.32;;;2.85;;
39848;SDS011;25518;47.878;15.914;2024-02-23T00:09:32;5.25;;;2.20;;
39848;SDS011;25518;47.878;15.914;2024-02-23T00:12:44;6.13;;;2.60;;
39848;SDS011;25518;47.878;15.914;2024-02-23T00:15:39;3.67;;;2.05;;
39848;SDS011;25518;47.878;15.914;2024-02-23T00:18:32;5.10;;;2.22;;
39848;SDS011;25518;47.878;15.914;2024-02-23T00:21:27;4.13;;;2.20;;
39848;SDS011;25518;47.878;15.914;2024-02-23T00:24:21;3.92;;;2.05;;
39848;SDS011;25518;47.878;15.914;2024-02-23T00:27:15;3.05;;;1.77;;
39848;SDS011;25518;47.878;15.914;2024-02-23T00:30:09;3.67;;;2.08;;
39848;SDS011;25518;47.878;15.914;2024-02-23T00:33:03;4.40;;;2.38;;
39848;SDS011;25518;47.878;15.914;2024-02-23T00:35:57;4.15;;;1.90;;
39848;SDS011;25518;47.878;15.914;2024-02-23T00:38:51;4.00;;;2.10;;
39848;SDS011;25518;47.878;15.914;2024-02-23T00:41:45;3.92;;;2.00;;
39848;SDS011;25518;47.878;15.914;2024-02-23T00:44:40;2.47;;;1.10;;
39848;SDS011;25518;47.878;15.914;2024-02-23T00:47:36;2.88;;;1.08;;
39848;SDS011;25518;47.878;15.914;2024-02-23T00:50:30;1.73;;;0.80;;
39848;SDS011;25518;47.878;15.914;2024-02-23T00:53:23;3.88;;;1.70;;
39848;SDS011;25518;47.878;15.914;2024-02-23T00:56:18;3.00;;;1.45;;
39848;SDS011;25518;47.878;15.914;2024-02-23T00:59:13;3.75;;;2.13;;
39848;SDS011;25518;47.878;15.914;2024-02-23T01:02:08;3.38;;;2.03;;
39848;SDS011;25518;47.878;15.914;2024-02-23T01:05:02;3.97;;;1.95;;
39848;SDS011;25518;47.878;15.914;2024-02-23T01:07:56;3.55;;;1.83;;
39848;SDS011;25518;47.878;15.914;2024-02-23T01:10:51;4.75;;;1.90;;
39848;SDS011;25518;47.878;15.914;2024-02-23T01:13:45;4.88;;;2.13;;
39848;SDS011;25518;47.878;15.914;2024-02-23T01:16:40;4.03;;;1.85;;
39848;SDS011;25518;47.878;15.914;2024-02-23T01:19:34;6.35;;;2.00;;
39848;SDS011;25518;47.878;15.914;2024-02-23T01:22:28;3.70;;;1.88;;
39848;SDS011;25518;47.878;15.914;2024-02-23T01:25:22;3.22;;;1.50;;
39848;SDS011;25518;47.878;15.914;2024-02-23T01:28:16;3.53;;;1.58;;
39848;SDS011;25518;47.878;15.914;2024-02-23T01:31:12;4.18;;;1.85;;
39848;SDS011;25518;47.878;15.914;2024-02-23T01:34:07;3.50;;;1.90;;
39848;SDS011;25518;47.878;15.914;2024-02-23T01:37:01;3.03;;;1.60;;
39848;SDS011;25518;47.878;15.914;2024-02-23T01:39:55;3.83;;;1.85;;
39848;SDS011;25518;47.878;15.914;2024-02-23T01:43:04;3.13;;;1.80;;
39848;SDS011;25518;47.878;15.914;2024-02-23T01:45:58;3.53;;;1.42;;
39848;SDS011;25518;47.878;15.914;2024-02-23T01:48:52;3.63;;;1.60;;
39848;SDS011;25518;47.878;15.914;2024-02-23T01:51:46;3.33;;;1.77;;
39848;SDS011;25518;47.878;15.914;2024-02-23T01:54:40;3.63;;;2.10;;
39848;SDS011;25518;47.878;15.914;2024-02-23T01:57:34;3.67;;;1.80;;
39848;SDS011;25518;47.878;15.914;2024-02-23T02:00:28;3.30;;;1.33;;
39848;SDS011;25518;47.878;15.914;2024-02-23T02:03:24;3.15;;;1.70;;
39848;SDS011;25518;47.878;15.914;2024-02-23T02:06:18;4.10;;;1.90;;
39848;SDS011;25518;47.878;15.914;2024-02-23T02:09:13;2.75;;;1.50;;
39848;SDS011;25518;47.878;15.914;2024-02-23T02:12:08;0.77;;;0.50;;
39848;SDS011;25518;47.878;15.914;2024-02-23T02:15:01;0.65;;;0.38;;
39848;SDS011;25518;47.878;15.914;2024-02-23T02:17:55;0.57;;;0.30;;
39848;SDS011;25518;47.878;15.914;2024-02-23T02:20:53;0.30;;;0.22;;
39848;SDS011;25518;47.878;15.914;2024-02-23T02:23:48;0.63;;;0.30;;
39848;SDS011;25518;47.878;15.914;2024-02-23T02:26:41;4.05;;;1.50;;
39848;SDS011;25518;47.878;15.914;2024-02-23T02:29:35;3.17;;;1.63;;
39848;SDS011;25518;47.878;15.914;2024-02-23T02:32:27;3.25;;;1.63;;
39848;SDS011;25518;47.878;15.914;2024-02-23T02:35:19;3.10;;;1.67;;
39848;SDS011;25518;47.878;15.914;2024-02-23T02:38:11;3.90;;;1.50;;
39848;SDS011;25518;47.878;15.914;2024-02-23T02:41:02;2.70;;;1.55;;
39848;SDS011;25518;47.878;15.914;2024-02-23T02:43:56;3.33;;;1.70;;
39848;SDS011;25518;47.878;15.914;2024-02-23T02:46:51;2.78;;;1.55;;
39848;SDS011;25518;47.878;15.914;2024-02-23T02:49:45;2.83;;;1.40;;
39848;SDS011;25518;47.878;15.914;2024-02-23T02:52:39;0.57;;;0.40;;
39848;SDS011;25518;47.878;15.914;2024-02-23T02:55:33;0.65;;;0.20;;
39848;SDS011;25518;47.878;15.914;2024-02-23T02:58:29;0.80;;;0.20;;
39848;SDS011;25518;47.878;15.914;2024-02-23T03:01:24;0.80;;;0.40;;
39848;SDS011;25518;47.878;15.914;2024-02-23T03:04:20;0.85;;;0.20;;
39848;SDS011;25518;47.878;15.914;2024-02-23T03:07:14;0.40;;;0.28;;
39848;SDS011;25518;47.878;15.914;2024-02-23T03:13:41;1.08;;;0.32;;
39848;SDS011;25518;47.878;15.914;2024-02-23T03:16:38;0.70;;;0.20;;
39848;SDS011;25518;47.878;15.914;2024-02-23T03:19:32;0.15;;;0.10;;
39848;SDS011;25518;47.878;15.914;2024-02-23T03:22:43;0.50;;;0.20;;
39848;SDS011;25518;47.878;15.914;2024-02-23T03:25:48;0.63;;;0.40;;
39848;SDS011;25518;47.878;15.914;2024-02-23T03:28:43;0.73;;;0.20;;
39848;SDS011;25518;47.878;15.914;2024-02-23T03:31:39;0.40;;;0.20;;
39848;SDS011;25518;47.878;15.914;2024-02-23T03:34:35;0.90;;;0.40;;
39848;SDS011;25518;47.878;15.914;2024-02-23T03:37:27;2.90;;;0.60;;
39848;SDS011;25518;47.878;15.914;2024-02-23T03:40:19;1.20;;;0.47;;
39848;SDS011;25518;47.878;15.914;2024-02-23T03:43:11;1.85;;;0.60;;
39848;SDS011;25518;47.878;15.914;2024-02-23T03:46:02;0.93;;;0.30;;
39848;SDS011;25518;47.878;15.914;2024-02-23T03:48:54;0.98;;;0.40;;
39848;SDS011;25518;47.878;15.914;2024-02-23T03:51:47;1.00;;;0.32;;
39848;SDS011;25518;47.878;15.914;2024-02-23T03:54:38;0.85;;;0.40;;
39848;SDS011;25518;47.878;15.914;2024-02-23T03:57:30;0.50;;;0.30;;
39848;SDS011;25518;47.878;15.914;2024-02-23T04:00:23;1.48;;;0.57;;
39848;SDS011;25518;47.878;15.914;2024-02-23T04:03:15;0.70;;;0.40;;
39848;SDS011;25518;47.878;15.914;2024-02-23T04:06:07;1.20;;;0.68;;
39848;SDS011;25518;47.878;15.914;2024-02-23T04:08:58;1.02;;;0.47;;
39848;SDS011;25518;47.878;15.914;2024-02-23T04:11:51;0.40;;;0.20;;
39848;SDS011;25518;47.878;15.914;2024-02-23T04:15:17;0.70;;;0.40;;
39848;SDS011;25518;47.878;15.914;2024-02-23T04:18:16;0.50;;;0.20;;
39848;SDS011;25518;47.878;15.914;2024-02-23T04:21:11;0.57;;;0.20;;
39848;SDS011;25518;47.878;15.914;2024-02-23T04:24:03;0.10;;;0.10;;
39848;SDS011;25518;47.878;15.914;2024-02-23T04:26:54;0.38;;;0.30;;
39848;SDS011;25518;47.878;15.914;2024-02-23T04:29:46;0.60;;;0.30;;
39848;SDS011;25518;47.878;15.914;2024-02-23T04:32:38;0.35;;;0.20;;
39848;SDS011;25518;47.878;15.914;2024-02-23T04:35:30;0.17;;;0.17;;
39848;SDS011;25518;47.878;15.914;2024-02-23T04:38:30;0.20;;;0.10;;
39848;SDS011;25518;47.878;15.914;2024-02-23T04:41:26;0.30;;;0.30;;
39848;SDS011;25518;47.878;15.914;2024-02-23T04:44:22;0.13;;;0.13;;
39848;SDS011;25518;47.878;15.914;2024-02-23T04:47:14;2.00;;;0.30;;
39848;SDS011;25518;47.878;15.914;2024-02-23T04:50:06;0.10;;;0.10;;
39848;SDS011;25518;47.878;15.914;2024-02-23T04:52:59;0.25;;;0.20;;
39848;SDS011;25518;47.878;15.914;2024-02-23T04:55:51;0.20;;;0.10;;
39848;SDS011;25518;47.878;15.914;2024-02-23T04:58:43;0.30;;;0.10;;
39848;SDS011;25518;47.878;15.914;2024-02-23T05:01:36;0.10;;;0.00;;
39848;SDS011;25518;47.878;15.914;2024-02-23T05:04:28;0.10;;;0.03;;
39848;SDS011;25518;47.878;15.914;2024-02-23T05:07:20;0.30;;;0.10;;
39848;SDS011;25518;47.878;15.914;2024-02-23T05:10:11;0.20;;;0.10;;
39848;SDS011;25518;47.878;15.914;2024-02-23T05:13:03;1.50;;;0.30;;
39848;SDS011;25518;47.878;15.914;2024-02-23T05:15:55;0.70;;;0.10;;
39848;SDS011;25518;47.878;15.914;2024-02-23T05:18:47;0.25;;;0.10;;
39848;SDS011;25518;47.878;15.914;2024-02-23T05:21:40;0.20;;;0.10;;
39848;SDS011;25518;47.878;15.914;2024-02-23T05:24:31;0.10;;;0.10;;
39848;SDS011;25518;47.878;15.914;2024-02-23T05:27:23;0.20;;;0.10;;
39848;SDS011;25518;47.878;15.914;2024-02-23T05:30:16;0.00;;;0.00;;
39848;SDS011;25518;47.878;15.914;2024-02-23T05:33:07;0.00;;;0.00;;
39848;SDS011;25518;47.878;15.914;2024-02-23T05:35:59;0.10;;;0.08;;
39848;SDS011;25518;47.878;15.914;2024-02-23T05:38:51;0.00;;;0.00;;
39848;SDS011;25518;47.878;15.914;2024-02-23T05:41:43;0.10;;;0.00;;
39848;SDS011;25518;47.878;15.914;2024-02-23T05:44:34;0.00;;;0.00;;
39848;SDS011;25518;47.878;15.914;2024-02-23T05:47:26;0.00;;;0.00;;
39848;SDS011;25518;47.878;15.914;2024-02-23T05:50:18;0.10;;;0.10;;
39848;SDS011;25518;47.878;15.914;2024-02-23T05:53:10;0.00;;;0.00;;
39848;SDS011;25518;47.878;15.914;2024-02-23T05:56:01;0.10;;;0.00;;
39848;SDS011;25518;47.878;15.914;2024-02-23T05:58:54;0.10;;;0.10;;
39848;SDS011;25518;47.878;15.914;2024-02-23T06:01:46;0.20;;;0.08;;
39848;SDS011;25518;47.878;15.914;2024-02-23T06:04:37;0.28;;;0.10;;
39848;SDS011;25518;47.878;15.914;2024-02-23T06:07:29;0.00;;;0.00;;
39848;SDS011;25518;47.878;15.914;2024-02-23T06:10:21;0.00;;;0.00;;
39848;SDS011;25518;47.878;15.914;2024-02-23T06:13:13;0.00;;;0.00;;
39848;SDS011;25518;47.878;15.914;2024-02-23T06:16:04;0.00;;;0.00;;
39848;SDS011;25518;47.878;15.914;2024-02-23T06:18:56;0.10;;;0.10;;
39848;SDS011;25518;47.878;15.914;2024-02-23T06:21:49;0.00;;;0.00;;
39848;SDS011;25518;47.878;15.914;2024-02-23T06:24:41;0.10;;;0.00;;
39848;SDS011;25518;47.878;15.914;2024-02-23T06:27:32;0.00;;;0.00;;
39848;SDS011;25518;47.878;15.914;2024-02-23T06:30:24;0.00;;;0.00;;
39848;SDS011;25518;47.878;15.914;2024-02-23T06:33:16;0.00;;;0.00;;
39848;SDS011;25518;47.878;15.914;2024-02-23T06:36:08;0.03;;;0.03;;
39848;SDS011;25518;47.878;15.914;2024-02-23T06:39:01;0.10;;;0.00;;
39848;SDS011;25518;47.878;15.914;2024-02-23T06:41:53;0.10;;;0.00;;
39848;SDS011;25518;47.878;15.914;2024-02-23T06:44:45;0.00;;;0.00;;
39848;SDS011;25518;47.878;15.914;2024-02-23T06:47:37;0.10;;;0.00;;
39848;SDS011;25518;47.878;15.914;2024-02-23T06:50:30;0.50;;;0.28;;
39848;SDS011;25518;47.878;15.914;2024-02-23T06:53:22;0.60;;;0.20;;
39848;SDS011;25518;47.878;15.914;2024-02-23T06:56:13;2.90;;;0.85;;
39848;SDS011;25518;47.878;15.914;2024-02-23T06:59:05;6.03;;;1.60;;
39848;SDS011;25518;47.878;15.914;2024-02-23T07:01:57;3.35;;;1.02;;
39848;SDS011;25518;47.878;15.914;2024-02-23T07:04:48;2.95;;;0.82;;
39848;SDS011;25518;47.878;15.914;2024-02-23T07:07:40;4.25;;;1.20;;
39848;SDS011;25518;47.878;15.914;2024-02-23T07:10:33;1.65;;;0.82;;
39848;SDS011;25518;47.878;15.914;2024-02-23T07:13:24;1.52;;;0.60;;
39848;SDS011;25518;47.878;15.914;2024-02-23T07:16:16;2.60;;;1.67;;
39848;SDS011;25518;47.878;15.914;2024-02-23T07:19:08;2.10;;;1.00;;
39848;SDS011;25518;47.878;15.914;2024-02-23T07:22:01;2.42;;;1.42;;
39848;SDS011;25518;47.878;15.914;2024-02-23T07:24:59;1.23;;;0.80;;
39848;SDS011;25518;47.878;15.914;2024-02-23T07:27:56;1.27;;;0.70;;
39848;SDS011;25518;47.878;15.914;2024-02-23T07:30:57;1.30;;;0.70;;
39848;SDS011;25518;47.878;15.914;2024-02-23T07:33:51;1.98;;;0.90;;
39848;SDS011;25518;47.878;15.914;2024-02-23T07:36:47;0.70;;;0.40;;
39848;SDS011;25518;47.878;15.914;2024-02-23T07:39:41;0.30;;;0.30;;
39848;SDS011;25518;47.878;15.914;2024-02-23T07:42:32;0.25;;;0.15;;
39848;SDS011;25518;47.878;15.914;2024-02-23T07:45:26;0.40;;;0.10;;
39848;SDS011;25518;47.878;15.914;2024-02-23T07:48:18;0.90;;;0.10;;
39848;SDS011;25518;47.878;15.914;2024-02-23T07:51:09;0.10;;;0.00;;
39848;SDS011;25518;47.878;15.914;2024-02-23T07:54:01;2.90;;;0.10;;
39848;SDS011;25518;47.878;15.914;2024-02-23T07:56:53;0.10;;;0.10;;
39848;SDS011;25518;47.878;15.914;2024-02-23T07:59:45;0.13;;;0.10;;
39848;SDS011;25518;47.878;15.914;2024-02-23T08:03:01;0.20;;;0.10;;
39848;SDS011;25518;47.878;15.914;2024-02-23T08:06:19;0.50;;;0.20;;
39848;SDS011;25518;47.878;15.914;2024-02-23T08:10:00;0.50;;;0.30;;
39848;SDS011;25518;47.878;15.914;2024-02-23T08:13:01;0.63;;;0.40;;
39848;SDS011;25518;47.878;15.914;2024-02-23T08:15:53;1.43;;;0.50;;
39848;SDS011;25518;47.878;15.914;2024-02-23T08:22:39;0.52;;;0.40;;
39848;SDS011;25518;47.878;15.914;2024-02-23T08:29:20;0.20;;;0.20;;
39848;SDS011;25518;47.878;15.914;2024-02-23T08:32:15;1.23;;;0.52;;
39848;SDS011;25518;47.878;15.914;2024-02-23T08:35:10;0.80;;;0.52;;
39848;SDS011;25518;47.878;15.914;2024-02-23T08:38:07;1.60;;;0.88;;
39848;SDS011;25518;47.878;15.914;2024-02-23T08:41:02;2.15;;;1.20;;
39848;SDS011;25518;47.878;15.914;2024-02-23T08:44:33;2.10;;;1.48;;
39848;SDS011;25518;47.878;15.914;2024-02-23T08:47:53;2.40;;;1.30;;
39848;SDS011;25518;47.878;15.914;2024-02-23T08:50:57;1.33;;;0.70;;
39848;SDS011;25518;47.878;15.914;2024-02-23T08:53:53;1.42;;;0.68;;
39848;SDS011;25518;47.878;15.914;2024-02-23T08:56:57;3.20;;;0.68;;
39848;SDS011;25518;47.878;15.914;2024-02-23T08:59:53;0.30;;;0.30;;
39848;SDS011;25518;47.878;15.914;2024-02-23T09:02:54;1.00;;;0.60;;
39848;SDS011;25518;47.878;15.914;2024-02-23T09:05:49;0.85;;;0.40;;
39848;SDS011;25518;47.878;15.914;2024-02-23T09:08:44;0.63;;;0.40;;
39848;SDS011;25518;47.878;15.914;2024-02-23T09:11:38;0.68;;;0.40;;
39848;SDS011;25518;47.878;15.914;2024-02-23T09:14:57;0.43;;;0.30;;
39848;SDS011;25518;47.878;15.914;2024-02-23T09:17:54;0.93;;;0.47;;
39848;SDS011;25518;47.878;15.914;2024-02-23T09:20:50;0.80;;;0.38;;
39848;SDS011;25518;47.878;15.914;2024-02-23T09:23:46;0.95;;;0.52;;
39848;SDS011;25518;47.878;15.914;2024-02-23T09:40:48;0.60;;;0.30;;
39848;SDS011;25518;47.878;15.914;2024-02-23T09:43:44;0.52;;;0.20;;
39848;SDS011;25518;47.878;15.914;2024-02-23T09:46:40;0.65;;;0.28;;
39848;SDS011;25518;47.878;15.914;2024-02-23T09:49:39;0.55;;;0.30;;
39848;SDS011;25518;47.878;15.914;2024-02-23T09:52:34;0.60;;;0.35;;
39848;SDS011;25518;47.878;15.914;2024-02-23T09:55:59;0.45;;;0.22;;
39848;SDS011;25518;47.878;15.914;2024-02-23T09:59:01;0.77;;;0.35;;
39848;SDS011;25518;47.878;15.914;2024-02-23T10:01:58;0.65;;;0.40;;
39848;SDS011;25518;47.878;15.914;2024-02-23T10:04:53;1.20;;;0.35;;
39848;SDS011;25518;47.878;15.914;2024-02-23T10:07:46;1.73;;;0.50;;
39848;SDS011;25518;47.878;15.914;2024-02-23T10:10:37;0.90;;;0.60;;
39848;SDS011;25518;47.878;15.914;2024-02-23T10:13:29;1.40;;;0.52;;
39848;SDS011;25518;47.878;15.914;2024-02-23T10:16:21;1.15;;;0.65;;
39848;SDS011;25518;47.878;15.914;2024-02-23T10:19:14;0.57;;;0.40;;
39848;SDS011;25518;47.878;15.914;2024-02-23T10:22:05;0.60;;;0.30;;
39848;SDS011;25518;47.878;15.914;2024-02-23T10:24:57;0.70;;;0.40;;
39848;SDS011;25518;47.878;15.914;2024-02-23T10:27:49;1.00;;;0.40;;
39848;SDS011;25518;47.878;15.914;2024-02-23T10:30:40;1.00;;;0.40;;
39848;SDS011;25518;47.878;15.914;2024-02-23T10:33:32;0.73;;;0.30;;
39848;SDS011;25518;47.878;15.914;2024-02-23T10:36:25;0.30;;;0.20;;
39848;SDS011;25518;47.878;15.914;2024-02-23T10:39:26;0.20;;;0.17;;
39848;SDS011;25518;47.878;15.914;2024-02-23T10:42:24;0.40;;;0.20;;
39848;SDS011;25518;47.878;15.914;2024-02-23T10:45:36;1.67;;;0.68;;
39848;SDS011;25518;47.878;15.914;2024-02-23T10:48:49;0.68;;;0.40;;
39848;SDS011;25518;47.878;15.914;2024-02-23T10:51:47;0.88;;;0.32;;
39848;SDS011;25518;47.878;15.914;2024-02-23T10:54:43;0.65;;;0.40;;
39848;SDS011;25518;47.878;15.914;2024-02-23T10:57:45;0.80;;;0.32;;
39848;SDS011;25518;47.878;15.914;2024-02-23T11:00:40;0.50;;;0.40;;
39848;SDS011;25518;47.878;15.914;2024-02-23T11:03:36;1.20;;;0.40;;
39848;SDS011;25518;47.878;15.914;2024-02-23T11:06:33;2.47;;;0.68;;
39848;SDS011;25518;47.878;15.914;2024-02-23T11:09:26;1.40;;;0.40;;
39848;SDS011;25518;47.878;15.914;2024-02-23T11:12:23;2.65;;;1.08;;
39848;SDS011;25518;47.878;15.914;2024-02-23T11:15:35;1.83;;;0.70;;
39848;SDS011;25518;47.878;15.914;2024-02-23T11:18:33;2.13;;;0.80;;
39848;SDS011;25518;47.878;15.914;2024-02-23T11:21:33;0.70;;;0.28;;
39848;SDS011;25518;47.878;15.914;2024-02-23T11:24:29;1.10;;;0.40;;
39848;SDS011;25518;47.878;15.914;2024-02-23T11:27:24;0.10;;;0.10;;
39848;SDS011;25518;47.878;15.914;2024-02-23T11:30:17;0.37;;;0.30;;
39848;SDS011;25518;47.878;15.914;2024-02-23T11:33:09;0.10;;;0.10;;
39848;SDS011;25518;47.878;15.914;2024-02-23T11:36:06;0.30;;;0.20;;
39848;SDS011;25518;47.878;15.914;2024-02-23T11:39:03;0.63;;;0.30;;
39848;SDS011;25518;47.878;15.914;2024-02-23T11:41:58;0.20;;;0.10;;
39848;SDS011;25518;47.878;15.914;2024-02-23T11:45:04;0.80;;;0.20;;
39848;SDS011;25518;47.878;15.914;2024-02-23T11:48:01;1.10;;;0.40;;
39848;SDS011;25518;47.878;15.914;2024-02-23T11:50:55;2.10;;;0.82;;
39848;SDS011;25518;47.878;15.914;2024-02-23T11:53:52;0.77;;;0.40;;
39848;SDS011;25518;47.878;15.914;2024-02-23T12:00:21;0.82;;;0.50;;
39848;SDS011;25518;47.878;15.914;2024-02-23T12:03:18;2.67;;;0.82;;
39848;SDS011;25518;47.878;15.914;2024-02-23T12:06:43;1.63;;;0.50;;
39848;SDS011;25518;47.878;15.914;2024-02-23T12:09:36;3.33;;;1.67;;
39848;SDS011;25518;47.878;15.914;2024-02-23T12:12:32;1.65;;;0.63;;
39848;SDS011;25518;47.878;15.914;2024-02-23T12:15:26;3.07;;;1.60;;
39848;SDS011;25518;47.878;15.914;2024-02-23T12:18:24;2.10;;;1.10;;
39848;SDS011;25518;47.878;15.914;2024-02-23T12:21:23;0.98;;;0.70;;
39848;SDS011;25518;47.878;15.914;2024-02-23T12:34:15;2.63;;;1.00;;
39848;SDS011;25518;47.878;15.914;2024-02-23T12:37:15;1.92;;;0.93;;
39848;SDS011;25518;47.878;15.914;2024-02-23T12:40:13;1.77;;;0.80;;
39848;SDS011;25518;47.878;15.914;2024-02-23T12:43:31;1.77;;;0.80;;
39848;SDS011;25518;47.878;15.914;2024-02-23T12:46:40;1.70;;;0.90;;
39848;SDS011;25518;47.878;15.914;2024-02-23T12:50:02;1.50;;;1.00;;
39848;SDS011;25518;47.878;15.914;2024-02-23T12:53:02;1.55;;;1.00;;
39848;SDS011;25518;47.878;15.914;2024-02-23T13:20:37;2.20;;;1.13;;
39848;SDS011;25518;47.878;15.914;2024-02-23T13:23:34;1.88;;;1.10;;
39848;SDS011;25518;47.878;15.914;2024-02-23T16:31:04;2.50;;;1.60;;
39848;SDS011;25518;47.878;15.914;2024-02-23T16:33:57;2.83;;;1.45;;
39848;SDS011;25518;47.878;15.914;2024-02-23T16:36:59;3.20;;;1.58;;
39848;SDS011;25518;47.878;15.914;2024-02-23T16:40:22;3.92;;;1.42;;
39848;SDS011;25518;47.878;15.914;2024-02-23T16:43:56;3.30;;;1.50;;
39848;SDS011;25518;47.878;15.914;2024-02-23T16:46:52;3.30;;;1.60;;
39848;SDS011;25518;47.878;15.914;2024-02-23T16:53:59;3.13;;;1.80;;
39848;SDS011;25518;47.878;15.914;2024-02-23T17:00:19;3.28;;;1.58;;
39848;SDS011;25518;47.878;15.914;2024-02-23T17:03:11;2.55;;;1.50;;
39848;SDS011;25518;47.878;15.914;2024-02-23T17:06:03;3.45;;;1.50;;
39848;SDS011;25518;47.878;15.914;2024-02-23T17:08:57;2.40;;;1.40;;
39848;SDS011;25518;47.878;15.914;2024-02-23T17:12:01;4.05;;;2.13;;
39848;SDS011;25518;47.878;15.914;2024-02-23T17:15:19;2.42;;;1.48;;
39848;SDS011;25518;47.878;15.914;2024-02-23T17:18:18;3.33;;;1.70;;
39848;SDS011;25518;47.878;15.914;2024-02-23T17:21:14;2.17;;;1.23;;
39848;SDS011;25518;47.878;15.914;2024-02-23T17:24:10;3.63;;;1.60;;
39848;SDS011;25518;47.878;15.914;2024-02-23T17:27:27;3.10;;;1.52;;
39848;SDS011;25518;47.878;15.914;2024-02-23T19:12:33;0.90;;;0.40;;
39848;SDS011;25518;47.878;15.914;2024-02-23T19:15:33;1.00;;;0.47;;
39848;SDS011;25518;47.878;15.914;2024-02-23T19:18:34;0.32;;;0.22;;
39848;SDS011;25518;47.878;15.914;2024-02-23T19:21:35;0.50;;;0.30;;
39848;SDS011;25518;47.878;15.914;2024-02-23T19:24:37;0.30;;;0.20;;
39848;SDS011;25518;47.878;15.914;2024-02-23T19:27:36;0.60;;;0.30;;
39848;SDS011;25518;47.878;15.914;2024-02-23T19:30:34;0.45;;;0.28;;
39848;SDS011;25518;47.878;15.914;2024-02-23T19:33:58;3.10;;;0.20;;
39848;SDS011;25518;47.878;15.914;2024-02-23T19:37:51;0.35;;;0.17;;
39848;SDS011;25518;47.878;15.914;2024-02-23T19:44:08;1.00;;;0.40;;
39848;SDS011;25518;47.878;15.914;2024-02-23T19:47:08;0.60;;;0.50;;
39848;SDS011;25518;47.878;15.914;2024-02-23T20:13:52;1.00;;;0.50;;
39848;SDS011;25518;47.878;15.914;2024-02-23T20:16:44;0.30;;;0.30;;
39848;SDS011;25518;47.878;15.914;2024-02-23T20:23:07;1.30;;;0.65;;
39848;SDS011;25518;47.878;15.914;2024-02-23T20:29:46;0.95;;;0.50;;
39848;SDS011;25518;47.878;15.914;2024-02-23T20:35:30;0.10;;;0.10;;
39848;SDS011;25518;47.878;15.914;2024-02-23T20:38:22;0.10;;;0.10;;
39848;SDS011;25518;47.878;15.914;2024-02-23T20:41:13;0.70;;;0.30;;
39848;SDS011;25518;47.878;15.914;2024-02-23T20:44:05;0.30;;;0.20;;
39848;SDS011;25518;47.878;15.914;2024-02-23T20:46:57;4.67;;;1.93;;
39848;SDS011;25518;47.878;15.914;2024-02-23T20:49:48;0.17;;;0.10;;
39848;SDS011;25518;47.878;15.914;2024-02-23T20:52:40;0.00;;;0.00;;
39848;SDS011;25518;47.878;15.914;2024-02-23T20:55:32;0.00;;;0.00;;
39848;SDS011;25518;47.878;15.914;2024-02-23T20:58:23;0.20;;;0.00;;
39848;SDS011;25518;47.878;15.914;2024-02-23T21:01:15;0.00;;;0.00;;
39848;SDS011;25518;47.878;15.914;2024-02-23T21:04:07;0.30;;;0.10;;
39848;SDS011;25518;47.878;15.914;2024-02-23T21:06:59;0.53;;;0.20;;
39848;SDS011;25518;47.878;15.914;2024-02-23T21:09:50;0.50;;;0.30;;
39848;SDS011;25518;47.878;15.914;2024-02-23T21:12:42;0.38;;;0.28;;
39848;SDS011;25518;47.878;15.914;2024-02-23T21:15:34;0.17;;;0.10;;
39848;SDS011;25518;47.878;15.914;2024-02-23T21:18:28;0.60;;;0.10;;
39848;SDS011;25518;47.878;15.914;2024-02-23T21:24:11;0.10;;;0.10;;
39848;SDS011;25518;47.878;15.914;2024-02-23T21:27:04;0.10;;;0.10;;
39848;SDS011;25518;47.878;15.914;2024-02-23T21:29:55;0.10;;;0.10;;
39848;SDS011;25518;47.878;15.914;2024-02-23T21:32:47;0.40;;;0.20;;
39848;SDS011;25518;47.878;15.914;2024-02-23T21:35:39;0.40;;;0.10;;
39848;SDS011;25518;47.878;15.914;2024-02-23T21:38:31;0.10;;;0.10;;
39848;SDS011;25518;47.878;15.914;2024-02-23T21:41:25;0.80;;;0.38;;
39848;SDS011;25518;47.878;15.914;2024-02-23T21:44:16;0.90;;;0.30;;
39848;SDS011;25518;47.878;15.914;2024-02-23T21:47:08;0.10;;;0.03;;
39848;SDS011;25518;47.878;15.914;2024-02-23T21:50:00;0.10;;;0.00;;
39848;SDS011;25518;47.878;15.914;2024-02-23T21:52:52;0.40;;;0.38;;
